createdAt,value
2018-07-28T00:01:20.862Z,5.73
2018-07-28T00:03:52.359Z,6.00
2018-07-28T00:06:24.457Z,6.17
2018-07-28T00:08:58.220Z,6.10
2018-07-28T00:11:26.695Z,6.37
2018-07-28T00:13:55.276Z,6.27
2018-07-28T00:16:25.796Z,6.77
2018-07-28T00:18:56.543Z,6.50
2018-07-28T00:21:24.709Z,6.63
2018-07-28T00:23:54.344Z,6.13
2018-07-28T00:26:23.707Z,6.40
2018-07-28T00:29:08.214Z,6.80
2018-07-28T00:31:37.460Z,6.90
2018-07-28T00:34:07.300Z,6.73
2018-07-28T00:36:35.763Z,6.30
2018-07-28T00:39:06.920Z,6.90
2018-07-28T00:41:35.702Z,6.03
2018-07-28T00:44:05.453Z,6.37
2018-07-28T00:46:34.762Z,6.30
2018-07-28T00:49:03.627Z,6.90
2018-07-28T00:54:14.149Z,6.70
2018-07-28T00:56:44.037Z,6.20
2018-07-28T00:59:13.151Z,6.73
2018-07-28T01:01:42.516Z,6.97
2018-07-28T01:04:12.595Z,6.27
2018-07-28T01:06:42.554Z,7.07
2018-07-28T01:09:16.226Z,6.60
2018-07-28T01:11:45.843Z,6.40
2018-07-28T01:14:14.152Z,6.27
2018-07-28T01:16:43.336Z,6.70
2018-07-28T01:19:11.666Z,6.90
2018-07-28T01:21:40.472Z,6.43
2018-07-28T01:24:09.039Z,11.70
2018-07-28T01:26:38.041Z,6.43
2018-07-28T01:29:12.106Z,6.47
2018-07-28T01:31:41.712Z,6.40
2018-07-28T01:34:10.025Z,7.20
2018-07-28T01:36:40.210Z,6.57
2018-07-28T01:39:10.041Z,6.93
2018-07-28T01:41:38.362Z,6.43
2018-07-28T01:44:07.239Z,7.17
2018-07-28T01:46:35.503Z,6.57
2018-07-28T01:49:04.703Z,6.77
2018-07-28T01:51:34.967Z,6.50
2018-07-28T01:54:03.233Z,6.70
2018-07-28T01:56:31.871Z,7.30
2018-07-28T01:59:00.249Z,7.50
2018-07-28T02:01:28.857Z,7.30
2018-07-28T02:03:57.566Z,6.80
2018-07-28T02:06:26.280Z,7.50
2018-07-28T02:08:54.483Z,6.93
2018-07-28T02:11:22.831Z,6.80
2018-07-28T02:13:51.059Z,6.87
2018-07-28T02:16:19.398Z,6.63
2018-07-28T02:18:47.733Z,7.00
2018-07-28T02:21:16.018Z,7.37
2018-07-28T02:23:44.268Z,7.13
2018-07-28T02:26:13.465Z,7.10
2018-07-28T02:28:41.878Z,7.40
2018-07-28T02:31:10.334Z,6.90
2018-07-28T02:33:38.577Z,9.30
2018-07-28T02:36:07.534Z,7.23
2018-07-28T02:38:35.854Z,7.13
2018-07-28T02:41:04.151Z,7.17
2018-07-28T02:43:32.463Z,7.13
2018-07-28T02:46:00.764Z,7.30
2018-07-28T02:48:29.075Z,7.90
2018-07-28T02:50:57.294Z,7.50
2018-07-28T02:53:25.829Z,7.40
2018-07-28T02:55:54.177Z,7.17
2018-07-28T02:58:22.839Z,7.23
2018-07-28T03:00:51.172Z,7.73
2018-07-28T03:03:19.555Z,7.30
2018-07-28T03:05:47.898Z,7.40
2018-07-28T03:08:16.641Z,6.90
2018-07-28T03:10:45.151Z,7.33
2018-07-28T03:13:13.758Z,7.67
2018-07-28T03:15:42.051Z,7.63
2018-07-28T03:18:15.724Z,7.37
2018-07-28T03:20:45.747Z,7.47
2018-07-28T03:23:14.299Z,6.87
2018-07-28T03:25:42.831Z,7.47
2018-07-28T03:28:11.144Z,7.77
2018-07-28T03:30:39.620Z,7.90
2018-07-28T03:33:08.347Z,7.70
2018-07-28T03:35:36.929Z,7.43
2018-07-28T03:38:05.291Z,7.73
2018-07-28T03:40:34.302Z,7.47
2018-07-28T03:43:03.407Z,7.83
2018-07-28T03:45:32.310Z,8.27
2018-07-28T03:48:05.850Z,7.73
2018-07-28T03:50:34.720Z,8.13
2018-07-28T03:53:02.971Z,8.23
2018-07-28T03:55:32.412Z,7.80
2018-07-28T03:58:00.754Z,8.07
2018-07-28T04:00:28.830Z,7.90
2018-07-28T04:02:57.114Z,7.70
2018-07-28T04:05:25.414Z,7.60
2018-07-28T04:07:53.717Z,8.23
2018-07-28T04:10:21.995Z,7.60
2018-07-28T04:12:50.815Z,7.97
2018-07-28T04:15:19.183Z,7.80
2018-07-28T04:17:55.744Z,8.50
2018-07-28T04:20:25.272Z,8.93
2018-07-28T04:22:54.495Z,7.93
2018-07-28T04:25:22.950Z,8.30
2018-07-28T04:27:52.388Z,8.33
2018-07-28T04:30:20.677Z,8.20
2018-07-28T04:32:51.303Z,8.33
2018-07-28T04:35:19.538Z,8.70
2018-07-28T04:37:49.307Z,8.50
2018-07-28T04:40:18.777Z,9.07
2018-07-28T04:42:47.521Z,9.47
2018-07-28T04:45:16.205Z,9.10
2018-07-28T04:47:45.138Z,9.13
2018-07-28T04:50:14.426Z,8.27
2018-07-28T04:52:42.680Z,8.57
2018-07-28T04:55:11.609Z,9.10
2018-07-28T04:57:50.280Z,8.57
2018-07-28T05:00:19.580Z,9.47
2018-07-28T05:02:50.559Z,9.07
2018-07-28T05:05:20.870Z,9.47
2018-07-28T05:08:00.856Z,9.00
2018-07-28T05:10:34.202Z,8.83
2018-07-28T05:13:08.180Z,9.50
2018-07-28T05:15:37.712Z,9.17
2018-07-28T05:18:45.641Z,9.20
2018-07-28T05:21:16.222Z,9.57
2018-07-28T05:23:45.230Z,9.17
2018-07-28T05:26:14.443Z,9.63
2018-07-28T05:32:05.595Z,9.90
2018-07-28T05:34:37.971Z,9.23
2018-07-28T05:37:17.215Z,9.37
2018-07-28T05:43:31.634Z,10.10
2018-07-28T05:46:13.413Z,9.83
2018-07-28T05:51:41.000Z,9.70
2018-07-28T06:05:42.979Z,9.40
2018-07-28T06:19:36.782Z,9.43
2018-07-28T06:22:15.700Z,9.50
2018-07-28T06:24:50.253Z,9.13
2018-07-28T06:27:23.762Z,9.33
2018-07-28T06:30:00.135Z,9.70
2018-07-28T06:32:41.113Z,9.10
2018-07-28T06:35:22.994Z,9.23
2018-07-28T06:37:57.935Z,9.23
2018-07-28T06:48:53.343Z,9.63
2018-07-28T06:51:37.655Z,8.33
2018-07-28T06:57:00.156Z,8.60
2018-07-28T07:02:20.659Z,8.83
2018-07-28T07:05:02.260Z,8.80
2018-07-28T07:10:28.515Z,8.73
2018-07-28T07:13:04.299Z,8.53
2018-07-28T07:15:39.431Z,8.33
2018-07-28T07:18:09.014Z,8.37
2018-07-28T07:20:51.025Z,8.57
2018-07-28T07:31:46.768Z,8.20
2018-07-28T07:34:29.848Z,8.53
2018-07-28T08:14:09.121Z,7.62
2018-07-28T08:16:45.156Z,7.60
2018-07-28T08:28:43.168Z,7.62
2018-07-28T08:34:11.323Z,7.08
2018-07-28T08:39:41.391Z,6.75
2018-07-28T09:17:59.168Z,6.12
2018-07-28T09:23:33.399Z,6.20
2018-07-28T09:26:18.831Z,6.45
2018-07-28T09:29:01.385Z,6.50
2018-07-28T09:31:48.184Z,6.37
2018-07-28T09:34:37.512Z,6.10
2018-07-28T09:43:08.228Z,5.42
2018-07-28T09:56:46.521Z,5.85
2018-07-28T09:59:22.646Z,5.22
2018-07-28T10:01:51.365Z,5.40
2018-07-28T10:04:30.363Z,5.47
2018-07-28T10:07:09.596Z,5.85
2018-07-28T10:09:50.030Z,5.97
2018-07-28T10:12:28.847Z,5.20
2018-07-28T10:14:58.888Z,5.95
2018-07-28T10:17:28.761Z,5.00
2018-07-28T10:20:08.640Z,5.72
2018-07-28T10:22:52.685Z,5.90
2018-07-28T10:28:21.743Z,5.30
2018-07-28T10:30:51.865Z,6.60
2018-07-28T10:33:21.764Z,5.72
2018-07-28T10:35:56.002Z,5.58
2018-07-28T10:38:30.789Z,4.70
2018-07-28T10:41:00.519Z,4.90
2018-07-28T10:43:30.594Z,4.35
2018-07-28T10:46:02.293Z,4.37
2018-07-28T10:48:30.791Z,4.60
2018-07-28T10:51:17.580Z,4.62
2018-07-28T10:53:52.760Z,4.75
2018-07-28T10:56:38.826Z,4.45
2018-07-28T11:02:12.025Z,4.95
2018-07-28T11:04:43.792Z,22.20
2018-07-28T11:07:12.948Z,4.22
2018-07-28T11:09:52.450Z,4.83
2018-07-28T11:12:23.069Z,6.12
2018-07-28T11:14:52.265Z,5.30
2018-07-28T11:17:23.873Z,5.28
2018-07-28T11:20:00.538Z,5.00
2018-07-28T11:22:37.567Z,5.53
2018-07-28T11:25:17.859Z,7.95
2018-07-28T11:28:09.504Z,5.05
2018-07-28T11:33:28.679Z,5.75
2018-07-28T11:41:08.087Z,5.40
2018-07-28T11:43:54.647Z,4.97
2018-07-28T11:46:25.017Z,4.58
2018-07-28T11:48:58.150Z,5.20
2018-07-28T11:51:41.125Z,5.00
2018-07-28T11:54:14.892Z,5.10
2018-07-28T11:56:45.608Z,5.83
2018-07-28T11:59:16.889Z,6.03
2018-07-28T12:01:46.815Z,7.55
2018-07-28T12:04:16.349Z,5.40
2018-07-28T12:06:52.325Z,5.80
2018-07-28T12:09:24.922Z,5.33
2018-07-28T12:11:59.333Z,5.40
2018-07-28T12:14:30.365Z,5.97
2018-07-28T12:17:02.196Z,6.10
2018-07-28T12:19:42.204Z,6.30
2018-07-28T12:22:13.977Z,10.93
2018-07-28T12:24:45.738Z,6.47
2018-07-28T12:27:18.088Z,5.95
2018-07-28T12:29:52.589Z,5.47
2018-07-28T12:32:28.590Z,5.67
2018-07-28T12:34:58.297Z,5.30
2018-07-28T12:37:27.711Z,5.35
2018-07-28T12:39:56.045Z,5.67
2018-07-28T12:42:27.234Z,5.28
2018-07-28T12:44:56.798Z,5.60
2018-07-28T12:47:29.252Z,6.08
2018-07-28T12:50:02.846Z,6.22
2018-07-28T12:52:33.827Z,4.65
2018-07-28T12:55:06.022Z,5.70
2018-07-28T12:57:36.442Z,5.58
2018-07-28T13:03:26.774Z,6.40
2018-07-28T13:06:04.007Z,5.28
2018-07-28T13:08:46.076Z,5.45
2018-07-28T13:11:23.314Z,5.12
2018-07-28T13:13:57.086Z,6.17
2018-07-28T13:16:29.795Z,5.40
2018-07-28T13:19:15.448Z,4.92
2018-07-28T13:21:50.273Z,5.50
2018-07-28T13:24:28.725Z,5.00
2018-07-28T13:27:02.065Z,5.62
2018-07-28T13:29:58.517Z,5.35
2018-07-28T13:32:27.791Z,5.78
2018-07-28T13:34:59.797Z,4.90
2018-07-28T13:37:29.882Z,6.28
2018-07-28T13:39:59.970Z,5.28
2018-07-28T13:42:32.985Z,5.42
2018-07-28T13:45:03.359Z,5.62
2018-07-28T13:47:34.110Z,5.53
2018-07-28T13:50:05.631Z,6.85
2018-07-28T13:52:35.295Z,6.20
2018-07-28T13:55:05.493Z,5.12
2018-07-28T13:57:35.507Z,6.00
2018-07-28T14:00:11.665Z,6.45
2018-07-28T14:02:40.524Z,4.70
2018-07-28T14:05:08.787Z,6.28
2018-07-28T14:07:48.387Z,4.70
2018-07-28T14:10:23.690Z,5.15
2018-07-28T14:12:52.534Z,5.15
2018-07-28T14:15:21.133Z,5.00
2018-07-28T14:17:53.373Z,4.92
2018-07-28T14:20:21.723Z,4.95
2018-07-28T14:22:50.656Z,5.80
2018-07-28T14:25:19.631Z,5.78
2018-07-28T14:27:51.096Z,6.05
2018-07-28T14:30:22.458Z,5.20
2018-07-28T14:32:52.058Z,5.10
2018-07-28T14:35:22.119Z,5.20
2018-07-28T14:38:05.182Z,4.83
2018-07-28T14:40:40.219Z,5.30
2018-07-28T14:43:09.644Z,5.67
2018-07-28T14:45:38.650Z,5.25
2018-07-28T14:48:09.240Z,5.05
2018-07-28T14:50:42.162Z,6.30
2018-07-28T14:53:11.169Z,5.55
2018-07-28T14:55:44.425Z,5.87
2018-07-28T14:58:13.675Z,5.25
2018-07-28T15:00:43.683Z,4.53
2018-07-28T15:03:14.722Z,4.53
2018-07-28T15:05:49.247Z,3.80
2018-07-28T15:08:48.655Z,4.42
2018-07-28T15:11:24.704Z,4.53
2018-07-28T15:14:02.270Z,4.53
2018-07-28T15:16:35.150Z,4.95
2018-07-28T15:19:09.499Z,4.47
2018-07-28T15:21:40.124Z,4.67
2018-07-28T15:24:12.631Z,4.45
2018-07-28T15:26:42.742Z,5.15
2018-07-28T15:29:17.822Z,4.90
2018-07-28T15:31:48.818Z,5.22
2018-07-28T15:34:18.462Z,4.37
2018-07-28T15:36:51.165Z,4.70
2018-07-28T15:39:20.001Z,4.58
2018-07-28T15:41:49.286Z,4.60
2018-07-28T15:44:17.999Z,5.05
2018-07-28T15:49:54.709Z,5.22
2018-07-28T15:52:28.972Z,4.55
2018-07-28T15:54:57.680Z,3.90
2018-07-28T15:57:29.108Z,4.35
2018-07-28T16:00:00.723Z,6.05
2018-07-28T16:02:34.105Z,5.62
2018-07-28T16:05:03.515Z,8.43
2018-07-28T16:07:32.008Z,6.60
2018-07-28T16:10:02.043Z,5.67
2018-07-28T16:12:32.140Z,4.80
2018-07-28T16:15:00.715Z,5.45
2018-07-28T16:17:35.341Z,6.40
2018-07-28T16:20:03.934Z,6.22
2018-07-28T16:22:34.110Z,5.65
2018-07-28T16:25:07.200Z,4.58
2018-07-28T16:27:35.714Z,4.97
2018-07-28T16:30:05.110Z,4.62
2018-07-28T16:32:37.186Z,4.60
2018-07-28T16:35:08.815Z,5.30
2018-07-28T16:37:37.168Z,6.15
2018-07-28T16:40:05.984Z,6.05
2018-07-28T16:42:38.285Z,6.50
2018-07-28T16:48:26.399Z,6.95
2018-07-28T16:51:00.533Z,4.92
2018-07-28T16:53:39.235Z,7.22
2018-07-28T16:56:14.199Z,6.12
2018-07-28T16:58:44.621Z,5.95
2018-07-28T17:03:57.464Z,6.65
2018-07-28T17:06:28.806Z,5.47
2018-07-28T17:12:02.517Z,6.30
2018-07-28T17:14:34.878Z,6.05
2018-07-28T17:17:07.034Z,5.45
2018-07-28T17:28:28.653Z,8.05
2018-07-28T17:31:03.398Z,5.70
2018-07-28T17:33:42.034Z,5.87
2018-07-28T17:36:22.934Z,6.30
2018-07-28T17:39:02.432Z,6.70
2018-07-28T17:41:40.046Z,6.03
2018-07-28T17:47:04.015Z,7.00
2018-07-28T17:53:09.664Z,5.70
2018-07-28T17:58:47.777Z,6.60
2018-07-28T18:01:22.164Z,6.85
2018-07-28T18:04:04.559Z,7.33
2018-07-28T18:06:40.389Z,8.93
2018-07-28T18:09:14.112Z,7.20
2018-07-28T18:11:52.065Z,7.70
2018-07-28T18:14:36.844Z,7.22
2018-07-28T18:17:11.603Z,7.20
2018-07-28T18:26:51.523Z,6.93
2018-07-28T19:02:02.427Z,9.73
2018-07-28T19:04:39.662Z,8.20
2018-07-28T19:07:20.303Z,7.37
2018-07-28T19:14:50.782Z,7.63
2018-07-28T19:17:30.828Z,7.67
2018-07-28T19:20:26.202Z,8.73
2018-07-28T19:32:07.809Z,8.37
2018-07-28T19:34:53.951Z,13.17
2018-07-28T19:40:30.127Z,9.07
2018-07-28T19:56:17.626Z,11.40
2018-07-28T19:59:27.293Z,9.40
2018-07-28T20:02:15.337Z,10.70
2018-07-28T20:04:56.057Z,10.67
2018-07-28T20:10:29.557Z,9.63
2018-07-28T20:19:59.006Z,10.60
2018-07-28T20:28:09.875Z,10.83
2018-07-28T20:30:48.035Z,5.10
2018-07-28T20:33:24.974Z,4.40
2018-07-28T20:42:19.842Z,2.50
2018-07-28T20:47:29.590Z,4.40
2018-07-28T20:52:52.695Z,5.40
2018-07-28T20:55:23.024Z,2.63
2018-07-28T20:57:52.854Z,4.73
2018-07-28T21:00:31.356Z,4.87
2018-07-28T21:03:05.654Z,2.90
2018-07-28T21:05:54.630Z,2.97
2018-07-28T21:08:26.035Z,2.60
2018-07-28T21:10:55.079Z,2.83
2018-07-28T21:13:25.772Z,2.70
2018-07-28T21:15:54.432Z,2.73
2018-07-28T21:18:33.399Z,2.47
2018-07-28T21:21:53.451Z,2.67
2018-07-28T21:24:27.897Z,3.10
2018-07-28T21:26:57.227Z,2.13
2018-07-28T21:29:57.059Z,2.40
2018-07-28T21:32:27.002Z,2.60
2018-07-28T21:35:03.713Z,4.37
2018-07-28T21:37:32.309Z,2.50
2018-07-28T21:40:01.831Z,2.40
2018-07-28T21:42:31.323Z,2.90
2018-07-28T21:45:03.431Z,2.57
2018-07-28T21:47:33.455Z,2.47
2018-07-28T21:50:10.272Z,2.77
2018-07-28T21:52:41.482Z,2.07
2018-07-28T21:55:09.799Z,2.07
2018-07-28T21:57:38.092Z,1.70
2018-07-28T22:00:09.831Z,1.90
2018-07-28T22:02:38.401Z,1.90
2018-07-28T22:05:13.838Z,3.47
2018-07-28T22:07:48.626Z,3.23
2018-07-28T22:10:18.101Z,3.00
2018-07-28T22:12:50.565Z,2.97
2018-07-28T22:15:20.743Z,6.13
2018-07-28T22:17:49.404Z,2.30
2018-07-28T22:20:23.102Z,2.50
2018-07-28T22:22:53.271Z,3.20
2018-07-28T22:25:29.235Z,2.80
2018-07-28T22:28:03.099Z,2.20
2018-07-28T22:36:08.532Z,2.93
2018-07-28T22:38:42.024Z,7.70
2018-07-28T22:41:11.671Z,8.07
2018-07-28T22:46:19.846Z,3.37
2018-07-28T22:48:59.088Z,4.07
2018-07-28T22:51:30.452Z,3.83
2018-07-28T22:54:04.567Z,4.20
2018-07-28T22:56:34.926Z,4.60
2018-07-28T22:59:13.533Z,6.03
2018-07-28T23:01:42.032Z,6.30
2018-07-28T23:04:10.963Z,6.07
2018-07-28T23:06:39.326Z,5.17
2018-07-28T23:09:09.500Z,5.37
2018-07-28T23:11:37.909Z,4.73
2018-07-28T23:14:06.244Z,4.23
2018-07-28T23:16:36.137Z,4.00
2018-07-28T23:19:04.828Z,4.30
2018-07-28T23:21:33.166Z,3.90
2018-07-28T23:24:02.432Z,3.97
2018-07-28T23:26:32.055Z,4.40
2018-07-28T23:29:05.689Z,4.40
2018-07-28T23:31:34.286Z,4.23
2018-07-28T23:34:02.677Z,4.43
2018-07-28T23:36:31.814Z,5.27
2018-07-28T23:39:00.305Z,5.43
2018-07-28T23:41:28.609Z,5.63
2018-07-28T23:43:57.282Z,5.67
2018-07-28T23:46:25.582Z,5.90
2018-07-28T23:48:54.282Z,5.80
2018-07-28T23:51:22.718Z,5.73
2018-07-28T23:53:51.054Z,5.50
2018-07-28T23:56:19.092Z,5.60
2018-07-28T23:58:47.578Z,5.50
